createdAt,value
2019-03-12T00:01:50.636Z,943.6
2019-03-12T00:04:56.563Z,943.7
2019-03-12T00:08:02.758Z,943.7
2019-03-12T00:11:08.631Z,943.8
2019-03-12T00:14:14.569Z,943.8
2019-03-12T00:17:20.527Z,943.8
2019-03-12T00:20:29.253Z,943.9
2019-03-12T00:23:35.130Z,943.9
2019-03-12T00:26:41.069Z,943.9
2019-03-12T00:29:47.031Z,944
2019-03-12T00:32:56.425Z,944
2019-03-12T00:36:02.290Z,944
2019-03-12T00:39:08.292Z,944
2019-03-12T00:42:14.251Z,944
2019-03-12T00:45:20.210Z,943.9
2019-03-12T00:48:26.169Z,944
2019-03-12T00:51:32.140Z,944
2019-03-12T00:54:38.093Z,944
2019-03-12T00:57:44.054Z,944
2019-03-12T01:00:50.107Z,944
2019-03-12T01:03:56.008Z,944
2019-03-12T01:07:01.936Z,943.9
2019-03-12T01:10:07.886Z,944
2019-03-12T01:13:13.850Z,944
2019-03-12T01:16:19.903Z,944
2019-03-12T01:19:25.878Z,943.9
2019-03-12T01:22:31.928Z,943.9
2019-03-12T01:25:37.836Z,943.9
2019-03-12T01:28:43.951Z,943.9
2019-03-12T01:31:49.824Z,943.9
2019-03-12T01:34:55.826Z,943.9
2019-03-12T01:38:01.835Z,943.8
2019-03-12T01:41:07.702Z,943.8
2019-03-12T01:44:13.803Z,943.9
2019-03-12T01:47:22.636Z,943.9
2019-03-12T01:50:28.631Z,944
2019-03-12T01:53:34.906Z,944.1
2019-03-12T01:56:40.963Z,944.2
2019-03-12T01:59:46.993Z,944.1
2019-03-12T02:02:52.990Z,944.3
2019-03-12T02:05:58.921Z,944.4
2019-03-12T02:09:05.010Z,944.4
2019-03-12T02:12:10.879Z,944.4
2019-03-12T02:15:16.926Z,944.5
2019-03-12T02:18:22.800Z,944.6
2019-03-12T02:21:28.845Z,944.4
2019-03-12T02:24:34.803Z,944.3
2019-03-12T02:27:55.145Z,944.3
2019-03-12T02:31:01.030Z,944.3
2019-03-12T02:34:07.440Z,944.2
2019-03-12T02:37:13.485Z,944.3
2019-03-12T02:40:19.566Z,944.3
2019-03-12T02:43:28.224Z,944.3
2019-03-12T02:46:34.334Z,944.3
2019-03-12T02:49:40.484Z,944.3
2019-03-12T02:52:46.456Z,944.3
2019-03-12T02:55:52.569Z,944.2
2019-03-12T02:59:03.321Z,944.2
2019-03-12T03:02:09.248Z,944.3
2019-03-12T03:05:15.272Z,944.2
2019-03-12T03:08:23.628Z,944.4
2019-03-12T03:11:32.148Z,944.4
2019-03-12T03:14:38.253Z,944.4
2019-03-12T03:17:44.310Z,944.4
2019-03-12T03:20:50.331Z,944.5
2019-03-12T03:23:56.289Z,944.4
2019-03-12T03:27:02.289Z,944.4
2019-03-12T03:30:08.447Z,944.5
2019-03-12T03:33:14.484Z,944.4
2019-03-12T03:36:20.538Z,944.5
2019-03-12T03:39:26.427Z,944.5
2019-03-12T03:42:32.658Z,944.5
2019-03-12T03:45:38.669Z,944.6
2019-03-12T03:48:44.627Z,944.5
2019-03-12T03:51:50.669Z,944.5
2019-03-12T03:54:56.581Z,944.6
2019-03-12T03:58:03.175Z,944.4
2019-03-12T04:01:09.136Z,944.5
2019-03-12T04:04:15.091Z,944.6
2019-03-12T04:07:21.155Z,944.4
2019-03-12T04:10:29.977Z,944.7
2019-03-12T04:13:36.142Z,944.8
2019-03-12T04:16:42.118Z,944.8
2019-03-12T04:19:48.166Z,945
2019-03-12T04:22:54.228Z,945
2019-03-12T04:26:00.213Z,945.1
2019-03-12T04:29:09.257Z,945.1
2019-03-12T04:32:15.282Z,945.1
2019-03-12T04:35:21.359Z,945
2019-03-12T04:38:27.303Z,945.1
2019-03-12T04:41:33.264Z,945
2019-03-12T04:44:39.223Z,945.2
2019-03-12T04:47:45.231Z,945.3
2019-03-12T04:50:51.147Z,945.4
2019-03-12T04:53:57.197Z,945.4
2019-03-12T04:57:03.111Z,945.5
2019-03-12T05:00:09.124Z,945.7
2019-03-12T05:03:15.182Z,945.7
2019-03-12T05:06:22.346Z,945.7
2019-03-12T05:09:28.325Z,945.8
2019-03-12T05:12:34.391Z,945.9
2019-03-12T05:15:40.396Z,945.9
2019-03-12T05:18:46.432Z,945.9
2019-03-12T05:21:55.339Z,945.9
2019-03-12T05:25:01.504Z,946
2019-03-12T05:28:07.568Z,946
2019-03-12T05:31:13.628Z,945.9
2019-03-12T05:34:21.928Z,945.8
2019-03-12T05:37:30.255Z,946
2019-03-12T05:40:36.370Z,946
2019-03-12T05:43:42.384Z,946.1
2019-03-12T05:46:48.367Z,946.1
2019-03-12T05:49:54.324Z,946.2
2019-03-12T05:53:00.262Z,946.3
2019-03-12T05:56:07.343Z,946.3
2019-03-12T05:59:13.314Z,946.3
2019-03-12T06:02:19.267Z,946.4
2019-03-12T06:05:25.202Z,946.3
2019-03-12T06:08:31.183Z,946.5
2019-03-12T06:11:37.144Z,946.5
2019-03-12T06:14:43.022Z,946.6
2019-03-12T06:17:51.064Z,946.6
2019-03-12T06:20:57.071Z,946.8
2019-03-12T06:24:02.951Z,946.8
2019-03-12T06:27:08.992Z,946.8
2019-03-12T06:30:14.949Z,946.9
2019-03-12T06:33:24.851Z,946.8
2019-03-12T06:36:30.786Z,946.9
2019-03-12T06:39:36.732Z,946.9
2019-03-12T06:42:45.838Z,946.8
2019-03-12T06:45:51.872Z,946.8
2019-03-12T06:48:57.878Z,946.8
2019-03-12T06:52:03.950Z,946.9
2019-03-12T06:55:09.905Z,946.9
2019-03-12T06:58:15.859Z,946.9
2019-03-12T07:01:21.782Z,946.9
2019-03-12T07:04:27.785Z,947
2019-03-12T07:07:33.668Z,947
2019-03-12T07:10:47.941Z,947
2019-03-12T07:13:54.059Z,947
2019-03-12T07:17:00.918Z,947
2019-03-12T07:20:06.993Z,947
2019-03-12T07:23:16.344Z,946.9
2019-03-12T07:34:08.972Z,946.8
2019-03-12T07:37:20.357Z,946.9
2019-03-12T07:40:26.392Z,946.8
2019-03-12T07:43:32.542Z,946.9
2019-03-12T07:46:38.504Z,946.8
2019-03-12T07:49:44.391Z,946.9
2019-03-12T07:52:50.474Z,947
2019-03-12T07:55:56.536Z,946.9
2019-03-12T07:59:05.052Z,946.9
2019-03-12T08:02:14.444Z,946.9
2019-03-12T08:05:20.448Z,947
2019-03-12T08:08:29.953Z,947.1
2019-03-12T08:11:35.911Z,947.1
2019-03-12T08:14:41.980Z,947.1
2019-03-12T08:17:48.028Z,947.2
2019-03-12T08:20:54.575Z,947.1
2019-03-12T08:24:00.487Z,947.1
2019-03-12T08:27:06.431Z,947
2019-03-12T08:30:12.942Z,947.1
2019-03-12T08:33:19.160Z,947
2019-03-12T08:36:25.176Z,947
2019-03-12T08:39:31.249Z,947
2019-03-12T08:42:37.250Z,947
2019-03-12T08:45:57.614Z,947
2019-03-12T08:49:03.914Z,947.1
2019-03-12T08:52:11.345Z,947
2019-03-12T08:55:17.470Z,947
2019-03-12T08:58:23.382Z,946.9
2019-03-12T09:01:29.443Z,946.9
2019-03-12T09:04:35.443Z,946.9
2019-03-12T09:07:41.678Z,947
2019-03-12T09:10:48.045Z,947.1
2019-03-12T09:13:54.201Z,947.1
2019-03-12T09:17:00.104Z,947.1
2019-03-12T09:20:09.053Z,947.1
2019-03-12T09:23:15.095Z,947.1
2019-03-12T09:26:20.977Z,947.1
2019-03-12T09:29:26.941Z,947.1
2019-03-12T09:32:34.101Z,947.1
2019-03-12T09:35:40.163Z,947.3
2019-03-12T09:38:46.223Z,947.4
2019-03-12T09:41:52.347Z,947.5
2019-03-12T09:44:58.346Z,947.4
2019-03-12T09:48:04.346Z,947.4
2019-03-12T09:51:10.378Z,947.3
2019-03-12T09:54:16.247Z,947.3
2019-03-12T09:57:22.388Z,947.3
2019-03-12T10:00:28.350Z,947.4
2019-03-12T10:03:34.311Z,947.4
2019-03-12T10:06:40.233Z,947.5
2019-03-12T10:09:46.231Z,947.5
2019-03-12T10:12:52.187Z,947.5
2019-03-12T10:15:58.212Z,947.5
2019-03-12T10:19:04.210Z,947.6
2019-03-12T10:22:11.298Z,947.5
2019-03-12T10:25:17.359Z,947.6
2019-03-12T10:28:23.317Z,947.6
2019-03-12T10:31:29.488Z,947.5
2019-03-12T10:34:35.393Z,947.5
2019-03-12T10:37:41.408Z,947.5
2019-03-12T10:40:47.362Z,947.5
2019-03-12T10:43:56.700Z,947.5
2019-03-12T10:47:02.637Z,947.5
2019-03-12T10:50:08.734Z,947.6
2019-03-12T10:53:14.681Z,947.6
2019-03-12T10:56:21.019Z,947.6
2019-03-12T10:59:27.111Z,947.6
2019-03-12T11:02:32.999Z,947.7
2019-03-12T11:05:47.397Z,947.6
2019-03-12T11:08:53.594Z,947.6
2019-03-12T11:11:59.714Z,947.6
2019-03-12T11:15:05.764Z,947.6
2019-03-12T11:18:11.781Z,947.6
2019-03-12T11:21:18.251Z,947.7
2019-03-12T11:24:24.218Z,947.6
2019-03-12T11:27:30.169Z,947.6
2019-03-12T11:30:36.405Z,947.6
2019-03-12T11:33:42.549Z,947.6
2019-03-12T11:36:48.575Z,947.5
2019-03-12T11:39:55.699Z,947.5
2019-03-12T11:43:03.912Z,947.4
2019-03-12T11:46:10.603Z,947.3
2019-03-12T11:49:17.058Z,947.3
2019-03-12T11:52:23.322Z,947.2
2019-03-12T11:55:32.152Z,947.2
2019-03-12T11:58:38.312Z,947.3
2019-03-12T12:01:44.257Z,947.3
2019-03-12T12:04:50.369Z,947.4
2019-03-12T12:07:56.587Z,947.4
2019-03-12T12:11:02.926Z,947.6
2019-03-12T12:14:08.879Z,947.7
2019-03-12T12:17:14.990Z,947.7
2019-03-12T12:20:31.515Z,947.8
2019-03-12T12:23:37.694Z,947.8
2019-03-12T12:26:43.795Z,947.7
2019-03-12T12:29:49.655Z,947.7
2019-03-12T12:32:55.720Z,947.7
2019-03-12T12:36:01.715Z,947.7
2019-03-12T12:39:07.850Z,947.7
2019-03-12T12:42:14.867Z,947.6
2019-03-12T12:45:20.873Z,947.6
2019-03-12T12:48:26.934Z,947.6
2019-03-12T12:51:32.948Z,947.6
2019-03-12T12:54:39.157Z,947.7
2019-03-12T12:57:45.212Z,947.7
2019-03-12T13:00:51.096Z,947.6
2019-03-12T13:03:57.315Z,947.6
2019-03-12T13:07:03.307Z,947.7
2019-03-12T13:10:09.257Z,947.7
2019-03-12T13:13:15.338Z,947.7
2019-03-12T13:16:26.550Z,947.7
2019-03-12T13:19:32.645Z,947.7
2019-03-12T13:22:39.033Z,947.6
2019-03-12T13:25:45.007Z,947.6
2019-03-12T13:28:51.056Z,947.7
2019-03-12T13:31:57.086Z,947.7
2019-03-12T13:35:17.720Z,947.6
2019-03-12T13:38:24.089Z,947.6
2019-03-12T13:41:30.562Z,947.7
2019-03-12T13:44:36.958Z,947.7
2019-03-12T13:47:44.202Z,947.8
2019-03-12T13:50:51.573Z,947.7
2019-03-12T13:53:57.689Z,947.6
2019-03-12T13:57:03.739Z,947.8
2019-03-12T14:00:09.727Z,947.8
2019-03-12T14:03:16.019Z,947.9
2019-03-12T14:06:21.927Z,947.8
2019-03-12T14:09:27.897Z,947.8
2019-03-12T14:12:34.150Z,947.8
2019-03-12T14:15:40.212Z,947.9
2019-03-12T14:18:46.274Z,947.9
2019-03-12T14:21:52.159Z,947.9
2019-03-12T14:24:58.294Z,947.8
2019-03-12T14:28:04.395Z,947.8
2019-03-12T14:31:10.437Z,947.7
2019-03-12T14:34:16.649Z,947.8
2019-03-12T14:37:22.574Z,947.8
2019-03-12T14:40:28.607Z,947.8
2019-03-12T14:43:34.568Z,947.9
2019-03-12T14:46:40.570Z,947.9
2019-03-12T14:49:46.480Z,947.9
2019-03-12T14:52:52.619Z,948
2019-03-12T14:55:58.686Z,948.1
2019-03-12T14:59:05.026Z,948.1
2019-03-12T15:02:11.040Z,948.1
2019-03-12T15:05:16.999Z,948.1
2019-03-12T15:08:22.964Z,948.2
2019-03-12T15:11:29.133Z,948.1
2019-03-12T15:14:35.310Z,948
2019-03-12T15:17:41.264Z,948
2019-03-12T15:20:47.412Z,948
2019-03-12T15:23:53.472Z,948
2019-03-12T15:26:59.430Z,948
2019-03-12T15:30:05.387Z,948.1
2019-03-12T15:33:11.400Z,948.1
2019-03-12T15:36:17.512Z,948
2019-03-12T15:39:23.707Z,948.1
2019-03-12T15:42:29.679Z,948.1
2019-03-12T15:45:35.702Z,948.1
2019-03-12T15:48:41.762Z,948.1
2019-03-12T15:51:47.693Z,948.1
2019-03-12T15:54:53.682Z,948.1
2019-03-12T15:57:59.637Z,948.1
2019-03-12T16:01:05.700Z,948.1
2019-03-12T16:04:11.765Z,948.2
2019-03-12T16:07:17.654Z,948.2
2019-03-12T16:10:23.836Z,948.3
2019-03-12T16:13:30.010Z,948.4
2019-03-12T16:16:35.931Z,948.4
2019-03-12T16:19:42.078Z,948.4
2019-03-12T16:22:48.187Z,948.5
2019-03-12T16:25:54.350Z,948.6
2019-03-12T16:29:00.259Z,948.6
2019-03-12T16:32:06.372Z,948.6
2019-03-12T16:35:12.286Z,948.6
2019-03-12T16:38:18.339Z,948.7
2019-03-12T16:41:24.273Z,948.7
2019-03-12T16:44:30.262Z,948.8
2019-03-12T16:47:36.139Z,948.9
2019-03-12T16:50:42.281Z,948.9
2019-03-12T16:53:48.251Z,949
2019-03-12T16:56:56.963Z,949.1
2019-03-12T17:00:09.526Z,949.2
2019-03-12T17:03:15.537Z,949.2
2019-03-12T17:06:21.426Z,949.3
2019-03-12T17:09:27.409Z,949.3
2019-03-12T17:12:33.363Z,949.3
2019-03-12T17:15:39.273Z,949.4
2019-03-12T17:18:45.347Z,949.4
2019-03-12T17:21:51.330Z,949.4
2019-03-12T17:24:57.355Z,949.4
2019-03-12T17:28:03.417Z,949.4
2019-03-12T17:31:09.441Z,949.5
2019-03-12T17:34:15.439Z,949.5
2019-03-12T17:37:21.318Z,949.5
2019-03-12T17:40:27.326Z,949.6
2019-03-12T17:43:33.316Z,949.7
2019-03-12T17:46:39.378Z,949.7
2019-03-12T17:49:45.341Z,949.7
2019-03-12T17:52:51.307Z,949.8
2019-03-12T17:55:57.270Z,949.8
2019-03-12T17:59:03.216Z,949.9
2019-03-12T18:02:09.180Z,949.9
2019-03-12T18:05:15.137Z,949.9
2019-03-12T18:08:21.255Z,949.9
2019-03-12T18:11:27.200Z,950
2019-03-12T18:14:33.070Z,949.9
2019-03-12T18:17:39.142Z,949.9
2019-03-12T18:20:45.407Z,949.9
2019-03-12T18:23:51.512Z,950
2019-03-12T18:26:57.507Z,950.1
2019-03-12T18:30:03.431Z,950.1
2019-03-12T18:33:09.521Z,950.2
2019-03-12T18:36:18.243Z,950.3
2019-03-12T18:39:24.284Z,950.2
2019-03-12T18:42:30.218Z,950.2
2019-03-12T18:45:36.203Z,950.3
2019-03-12T18:48:45.751Z,950.2
2019-03-12T18:51:52.782Z,950.2
2019-03-12T18:54:58.656Z,950.2
2019-03-12T18:58:04.854Z,950.2
2019-03-12T19:01:10.990Z,950.3
2019-03-12T19:04:16.895Z,950.3
2019-03-12T19:07:22.827Z,950.3
2019-03-12T19:10:28.888Z,950.4
2019-03-12T19:13:34.777Z,950.4
2019-03-12T19:16:40.717Z,950.5
2019-03-12T19:19:46.662Z,950.5
2019-03-12T19:22:52.786Z,950.6
2019-03-12T19:25:58.659Z,950.6
2019-03-12T19:29:04.651Z,950.7
2019-03-12T19:32:10.606Z,950.8
2019-03-12T19:35:16.670Z,950.8
2019-03-12T19:38:22.559Z,950.8
2019-03-12T19:41:28.484Z,950.7
2019-03-12T19:44:34.500Z,950.8
2019-03-12T19:47:40.545Z,950.8
2019-03-12T19:50:46.481Z,950.8
2019-03-12T19:53:52.685Z,950.8
2019-03-12T19:56:58.617Z,950.8
2019-03-12T20:00:04.674Z,950.9
2019-03-12T20:03:16.279Z,950.9
2019-03-12T20:06:22.304Z,950.9
2019-03-12T20:09:28.370Z,950.9
2019-03-12T20:12:34.434Z,951
2019-03-12T20:15:40.312Z,951
2019-03-12T20:18:46.352Z,951.1
2019-03-12T20:21:52.312Z,951.1
2019-03-12T20:24:58.274Z,951.1
2019-03-12T20:28:04.383Z,951
2019-03-12T20:31:10.400Z,951.1
2019-03-12T20:34:16.409Z,951.1
2019-03-12T20:37:22.313Z,951.1
2019-03-12T20:40:28.194Z,951.1
2019-03-12T20:43:34.293Z,951.1
2019-03-12T20:46:40.308Z,951.1
2019-03-12T20:49:46.224Z,951.1
2019-03-12T20:52:52.214Z,951.1
2019-03-12T20:55:58.127Z,951.1
2019-03-12T20:59:04.030Z,951.1
2019-03-12T21:02:09.915Z,951.1
2019-03-12T21:05:15.954Z,951.1
2019-03-12T21:08:21.828Z,951.1
2019-03-12T21:11:27.767Z,951.1
2019-03-12T21:14:33.842Z,951.1
2019-03-12T21:17:39.788Z,951
2019-03-12T21:20:45.864Z,951
2019-03-12T21:23:51.919Z,951
2019-03-12T21:26:57.980Z,951
2019-03-12T21:30:03.906Z,951
2019-03-12T21:33:16.858Z,950.9
2019-03-12T21:36:22.798Z,950.9
2019-03-12T21:39:28.879Z,950.9
2019-03-12T21:42:35.004Z,950.9
2019-03-12T21:45:40.866Z,950.8
2019-03-12T21:48:49.477Z,950.8
2019-03-12T21:51:55.560Z,950.8
2019-03-12T21:55:01.545Z,950.8
2019-03-12T21:58:07.504Z,950.8
2019-03-12T22:01:13.567Z,950.9
2019-03-12T22:04:19.527Z,950.8
2019-03-12T22:07:25.606Z,950.8
2019-03-12T22:10:31.547Z,950.8
2019-03-12T22:13:37.435Z,950.7
2019-03-12T22:16:43.469Z,950.7
2019-03-12T22:19:49.347Z,950.7
2019-03-12T22:22:55.284Z,950.7
2019-03-12T22:26:01.247Z,950.7
2019-03-12T22:29:07.203Z,950.7
2019-03-12T22:32:13.167Z,950.7
2019-03-12T22:35:19.054Z,950.8
2019-03-12T22:38:24.985Z,950.8
2019-03-12T22:41:30.859Z,950.8
2019-03-12T22:44:36.799Z,950.8
2019-03-12T22:47:42.744Z,950.7
2019-03-12T22:50:48.821Z,950.7
2019-03-12T22:53:54.807Z,950.7
2019-03-12T22:57:00.714Z,950.7
2019-03-12T23:00:06.586Z,950.7
2019-03-12T23:03:12.663Z,950.8
2019-03-12T23:06:18.875Z,950.7
2019-03-12T23:09:24.802Z,950.6
2019-03-12T23:12:33.197Z,950.7
2019-03-12T23:15:39.147Z,950.6
2019-03-12T23:18:45.125Z,950.6
2019-03-12T23:21:51.076Z,950.5
2019-03-12T23:24:57.036Z,950.5
2019-03-12T23:28:02.920Z,950.4
2019-03-12T23:31:08.855Z,950.4
2019-03-12T23:34:14.784Z,950.5
2019-03-12T23:37:21.508Z,950.4
2019-03-12T23:40:30.315Z,950.4
2019-03-12T23:43:36.323Z,950.3
2019-03-12T23:46:45.098Z,950.5
2019-03-12T23:49:51.061Z,950.5
2019-03-12T23:52:57.020Z,950.5
2019-03-12T23:56:02.980Z,950.5
2019-03-12T23:59:09.146Z,950.5
